Time;durP1;ratioP1;P1;durP2;ratioP2;P2;SDS_P1;SDS_P2;PMS_P1;PMS_P2;Temp;Humidity;BMP_temperature;BMP_pressure;BME280_temperature;BME280_humidity;BME280_pressure;Samples;Min_cycle;Max_cycle;Signal;HPM_P1;HPM_P2
2022/08/25 00:01:37;;;;;;;0.82;0.40;;;21.30;89.30;;;;;;10284124;28;20047;-64
2022/08/25 00:06:41;;;;;;;5.95;0.57;;;21.20;90.00;;;;;;10289278;28;20058;-64
2022/08/25 00:11:43;;;;;;;2.35;0.60;;;21.20;90.20;;;;;;10290121;28;20081;-64
2022/08/25 00:16:46;;;;;;;1.95;0.60;;;21.10;90.50;;;;;;10293765;28;20078;-65
2022/08/25 00:21:48;;;;;;;3.90;0.70;;;21.00;90.70;;;;;;10286204;28;20050;-64
2022/08/25 00:26:53;;;;;;;2.13;0.80;;;21.00;91.10;;;;;;10281472;28;20054;-65
2022/08/25 00:31:56;;;;;;;2.23;0.50;;;20.90;91.40;;;;;;10296354;28;20608;-65
2022/08/25 00:36:58;;;;;;;2.97;0.50;;;20.80;91.70;;;;;;10288552;28;20214;-64
2022/08/25 00:42:01;;;;;;;1.98;0.70;;;20.80;92.20;;;;;;10290854;28;20046;-64
2022/08/25 00:47:05;;;;;;;2.22;0.60;;;20.70;92.50;;;;;;10281177;28;20049;-64
2022/08/25 00:52:15;;;;;;;1.50;0.80;;;20.70;92.90;;;;;;10283986;28;20525;-65
2022/08/25 00:57:24;;;;;;;3.83;0.70;;;20.60;93.20;;;;;;10283118;28;20493;-64
2022/08/25 01:02:36;;;;;;;1.60;0.98;;;20.60;93.50;;;;;;10285975;28;20066;-64
2022/08/25 01:07:39;;;;;;;1.38;0.57;;;20.50;94.00;;;;;;10293016;28;20050;-65
2022/08/25 01:12:45;;;;;;;4.93;0.70;;;20.50;94.60;;;;;;10285260;28;20101;-64
2022/08/25 01:17:52;;;;;;;2.05;0.90;;;20.40;95.10;;;;;;10282854;28;20043;-64
2022/08/25 01:22:55;;;;;;;2.72;0.93;;;20.40;95.50;;;;;;10287933;28;20050;-64
2022/08/25 01:27:57;;;;;;;2.22;0.70;;;20.30;95.80;;;;;;10285905;28;20046;-65
2022/08/25 01:33:02;;;;;;;1.42;0.80;;;20.30;96.20;;;;;;10281004;28;20059;-61
2022/08/25 01:38:05;;;;;;;3.75;1.23;;;20.30;96.60;;;;;;10281887;28;20101;-59
2022/08/25 01:43:13;;;;;;;3.10;0.90;;;20.20;97.10;;;;;;10290052;28;20050;-61
2022/08/25 01:48:15;;;;;;;1.20;0.80;;;20.20;97.60;;;;;;10284767;28;20592;-62
2022/08/25 01:53:27;;;;;;;3.10;0.63;;;20.10;98.00;;;;;;10283622;28;20109;-62
2022/08/25 01:58:32;;;;;;;0.70;0.57;;;20.10;98.50;;;;;;10281226;28;20105;-62
2022/08/25 02:03:39;;;;;;;1.80;1.00;;;20.00;99.10;;;;;;10287312;28;20117;-62
2022/08/25 02:08:43;;;;;;;1.42;0.65;;;19.90;99.70;;;;;;10265515;28;20050;-62
2022/08/25 02:13:45;;;;;;;1.60;0.60;;;19.90;99.90;;;;;;10287962;28;20078;-62
2022/08/25 02:18:47;;;;;;;2.78;0.90;;;19.90;99.90;;;;;;10286045;28;20058;-62
2022/08/25 02:23:48;;;;;;;1.77;1.00;;;19.80;99.90;;;;;;10292567;28;20453;-60
2022/08/25 02:28:51;;;;;;;2.00;1.00;;;19.80;99.90;;;;;;10280376;28;20104;-61
2022/08/25 02:33:53;;;;;;;1.30;0.90;;;19.80;99.90;;;;;;10281032;28;20101;-62
2022/08/25 02:38:55;;;;;;;3.97;1.13;;;19.70;99.90;;;;;;10284551;28;20057;-62
2022/08/25 02:43:58;;;;;;;1.88;0.82;;;19.70;99.90;;;;;;10287816;28;20046;-62
2022/08/25 02:49:01;;;;;;;1.75;0.95;;;19.60;99.90;;;;;;10287656;28;20069;-62
2022/08/25 02:54:05;;;;;;;2.80;1.20;;;19.60;99.90;;;;;;10288579;28;20109;-62
2022/08/25 02:59:06;;;;;;;5.18;1.40;;;19.50;99.90;;;;;;10295395;28;20050;-61
2022/08/25 03:04:08;;;;;;;2.25;1.20;;;19.40;99.90;;;;;;10291519;28;20105;-62
2022/08/25 03:09:11;;;;;;;2.30;1.02;;;19.30;99.90;;;;;;10296334;28;20121;-62
2022/08/25 03:14:12;;;;;;;5.45;1.20;;;19.20;99.90;;;;;;10291931;28;21430;-61
2022/08/25 03:19:15;;;;;;;3.67;1.25;;;19.20;99.90;;;;;;10295306;28;20058;-62
2022/08/25 03:24:17;;;;;;;4.30;1.38;;;19.10;99.90;;;;;;10292213;28;20069;-62
2022/08/25 03:29:28;;;;;;;4.30;1.45;;;19.10;99.90;;;;;;10291657;28;21585;-61
2022/08/25 03:34:30;;;;;;;2.25;1.30;;;19.00;99.90;;;;;;10295213;28;20104;-61
2022/08/25 03:39:32;;;;;;;3.58;1.58;;;18.90;99.90;;;;;;10297985;28;20050;-61
2022/08/25 03:44:34;;;;;;;2.88;1.38;;;18.90;99.90;;;;;;10286768;28;20043;-62
2022/08/25 03:49:35;;;;;;;3.05;1.45;;;18.80;99.90;;;;;;10299149;28;20046;-61
2022/08/25 03:54:37;;;;;;;3.53;1.20;;;18.70;99.90;;;;;;10292753;28;20116;-61
2022/08/25 03:59:39;;;;;;;2.17;1.30;;;18.70;99.90;;;;;;10286193;28;20046;-61
2022/08/25 04:04:40;;;;;;;3.38;1.48;;;18.70;99.90;;;;;;10267004;28;20058;-61
2022/08/25 04:09:42;;;;;;;4.20;1.35;;;18.50;99.90;;;;;;10292729;28;20062;-60
2022/08/25 04:14:44;;;;;;;3.65;1.38;;;18.40;99.90;;;;;;10279602;28;20060;-61
2022/08/25 04:19:46;;;;;;;4.22;1.95;;;18.50;99.90;;;;;;10277906;28;20054;-61
2022/08/25 04:24:47;;;;;;;2.13;1.25;;;18.50;99.90;;;;;;10293087;28;20054;-60
2022/08/25 04:29:49;;;;;;;5.22;1.52;;;18.40;99.90;;;;;;10297379;28;20069;-59
2022/08/25 04:34:51;;;;;;;2.65;1.50;;;18.40;99.90;;;;;;10284891;28;20054;-60
2022/08/25 04:39:52;;;;;;;3.28;1.60;;;18.30;99.90;;;;;;10295583;28;20065;-60
2022/08/25 04:44:54;;;;;;;2.08;1.55;;;18.30;99.90;;;;;;10287746;28;20056;-60
2022/08/25 04:49:56;;;;;;;3.17;1.42;;;18.30;99.90;;;;;;10287982;28;20111;-60
2022/08/25 04:54:58;;;;;;;3.13;1.67;;;18.30;99.90;;;;;;10277767;28;20058;-60
2022/08/25 05:00:01;;;;;;;4.65;2.10;;;18.30;99.90;;;;;;10290179;28;20054;-60
2022/08/25 05:05:03;;;;;;;5.13;1.98;;;18.40;99.90;;;;;;10290013;28;20034;-60
2022/08/25 05:10:05;;;;;;;4.80;1.65;;;18.40;99.90;;;;;;10291951;28;20054;-60
2022/08/25 05:20:29;;;;;;;6.07;1.88;;;18.60;99.90;;;;;;10288598;28;20672;-63
2022/08/25 05:25:31;;;;;;;6.28;2.22;;;18.70;99.90;;;;;;10289604;28;20038;-63
2022/08/25 05:30:33;;;;;;;5.95;2.15;;;18.80;99.90;;;;;;10292459;28;20038;-63
2022/08/25 05:35:35;;;;;;;8.05;2.78;;;18.90;99.90;;;;;;10289783;28;20389;-63
2022/08/25 05:40:37;;;;;;;9.63;2.17;;;19.00;99.90;;;;;;10289463;28;20461;-63
2022/08/25 05:45:39;;;;;;;4.45;2.42;;;19.10;99.90;;;;;;10280994;28;20080;-64
2022/08/25 05:50:41;;;;;;;6.78;2.25;;;19.20;99.90;;;;;;10269486;28;20117;-63
2022/08/25 05:55:44;;;;;;;4.80;2.47;;;19.30;99.90;;;;;;10281006;28;20100;-63
2022/08/25 06:00:46;;;;;;;3.35;2.20;;;19.50;99.90;;;;;;10280108;28;20046;-63
2022/08/25 06:05:48;;;;;;;4.30;2.33;;;19.60;99.90;;;;;;10285371;28;20049;-64
2022/08/25 06:10:52;;;;;;;6.63;2.70;;;19.70;99.90;;;;;;10288789;28;20074;-63
2022/08/25 06:15:58;;;;;;;4.45;1.80;;;19.90;99.90;;;;;;10268854;28;20038;-64
2022/08/25 06:21:11;;;;;;;6.68;2.25;;;20.10;99.90;;;;;;10279425;28;20054;-63
2022/08/25 06:26:13;;;;;;;2.95;2.15;;;20.30;99.90;;;;;;10296683;28;20503;-63
2022/08/25 06:31:22;;;;;;;4.15;1.98;;;20.40;99.90;;;;;;10292035;28;20081;-63
2022/08/25 06:36:24;;;;;;;4.85;2.55;;;20.60;99.90;;;;;;10282422;28;20081;-63
2022/08/25 06:41:26;;;;;;;5.30;2.38;;;20.70;99.90;;;;;;10298556;28;20047;-63
2022/08/25 06:46:38;;;;;;;6.97;2.63;;;20.90;99.90;;;;;;10295679;28;20128;-63
2022/08/25 06:51:41;;;;;;;5.68;2.30;;;21.10;99.90;;;;;;10280536;28;20057;-63
2022/08/25 06:56:42;;;;;;;7.95;2.80;;;21.30;99.90;;;;;;10284106;28;20051;-63
2022/08/25 07:01:44;;;;;;;6.95;3.53;;;21.50;99.90;;;;;;10290068;28;20063;-63
2022/08/25 07:06:50;;;;;;;6.47;3.13;;;21.70;99.90;;;;;;10293272;28;20053;-64
2022/08/25 07:11:52;;;;;;;4.43;3.28;;;21.90;99.90;;;;;;10279962;28;20047;-63
2022/08/25 07:16:54;;;;;;;9.05;3.22;;;22.00;99.90;;;;;;10285428;28;20704;-63
2022/08/25 07:21:56;;;;;;;5.03;3.22;;;22.20;99.90;;;;;;10294761;28;20050;-61
2022/08/25 07:26:58;;;;;;;7.15;2.70;;;22.30;99.90;;;;;;10295320;28;20046;-61
2022/08/25 07:32:00;;;;;;;4.95;3.15;;;22.50;99.90;;;;;;10299823;28;20447;-61
2022/08/25 07:37:05;;;;;;;10.40;3.20;;;22.70;99.90;;;;;;10293468;28;20582;-61
2022/08/25 07:42:08;;;;;;;6.43;2.97;;;22.90;99.90;;;;;;10281740;28;20054;-61
2022/08/25 07:47:14;;;;;;;7.28;3.10;;;23.10;99.90;;;;;;10291344;28;20057;-60
2022/08/25 07:52:16;;;;;;;5.20;3.38;;;23.30;99.90;;;;;;10290372;28;20042;-60
2022/08/25 07:57:18;;;;;;;8.02;3.45;;;23.50;99.90;;;;;;10296676;28;20113;-59
2022/08/25 08:02:20;;;;;;;6.20;3.58;;;23.70;99.90;;;;;;10299425;28;20525;-59
2022/08/25 08:07:26;;;;;;;7.90;2.67;;;23.90;99.90;;;;;;10290267;28;20058;-59
2022/08/25 08:12:44;;;;;;;6.65;3.20;;;24.10;99.90;;;;;;10292855;28;20141;-59
2022/08/25 08:17:46;;;;;;;6.20;3.08;;;24.20;99.90;;;;;;10293028;28;20050;-59
2022/08/25 08:22:48;;;;;;;4.20;2.78;;;24.40;99.90;;;;;;10279103;28;20433;-59
2022/08/25 08:27:50;;;;;;;10.52;3.63;;;24.50;99.90;;;;;;10294691;28;20070;-59
2022/08/25 08:32:55;;;;;;;13.03;2.67;;;24.70;99.90;;;;;;10289343;28;20069;-59
2022/08/25 08:38:11;;;;;;;7.30;3.00;;;24.80;99.90;;;;;;10296217;28;20501;-59
2022/08/25 08:43:22;;;;;;;7.00;3.20;;;25.00;99.90;;;;;;10288624;28;20572;-59
2022/08/25 08:48:56;;;;;;;5.47;3.03;;;25.10;99.90;;;;;;10281679;28;20133;-59
2022/08/25 08:54:17;;;;;;;4.72;3.42;;;25.30;99.90;;;;;;10282626;28;20047;-60
2022/08/25 08:59:24;;;;;;;6.28;2.90;;;25.40;99.90;;;;;;10289073;28;20413;-62
2022/08/25 09:04:42;;;;;;;9.10;3.30;;;25.60;99.90;;;;;;10286407;28;20061;-60
2022/08/25 09:09:45;;;;;;;5.05;2.28;;;25.90;99.90;;;;;;10284359;28;20149;-60
2022/08/25 09:15:04;;;;;;;3.20;2.33;;;26.00;99.90;;;;;;10249183;28;20055;-60
2022/08/25 09:20:37;;;;;;;3.25;1.80;;;26.30;99.90;;;;;;10252439;28;20149;-64
2022/08/25 09:25:59;;;;;;;3.33;2.35;;;26.60;99.90;;;;;;10250979;28;20050;-65
2022/08/25 09:31:24;;;;;;;5.18;2.47;;;26.80;99.90;;;;;;10249140;28;20054;-65
2022/08/25 09:36:32;;;;;;;3.78;2.08;;;27.10;99.90;;;;;;10249630;28;20050;-65
2022/08/25 09:41:43;;;;;;;3.35;2.17;;;27.20;99.60;;;;;;10244385;28;20109;-65
2022/08/25 09:47:05;;;;;;;4.97;2.35;;;27.40;99.10;;;;;;10242154;28;20113;-65
2022/08/25 09:52:34;;;;;;;3.83;2.33;;;27.60;98.90;;;;;;10256083;28;20043;-64
2022/08/25 09:57:48;;;;;;;5.10;2.42;;;27.80;98.30;;;;;;10254063;28;20069;-64
2022/08/25 10:03:08;;;;;;;5.95;2.13;;;27.90;97.50;;;;;;10250538;28;20039;-64
2022/08/25 10:08:32;;;;;;;4.90;2.40;;;28.20;97.20;;;;;;10254410;28;20101;-64
2022/08/25 10:13:46;;;;;;;6.63;2.33;;;28.30;97.00;;;;;;10282466;28;20057;-64
2022/08/25 10:19:08;;;;;;;4.05;2.45;;;28.50;96.60;;;;;;10279412;28;20066;-65
2022/08/25 10:24:11;;;;;;;3.67;2.50;;;28.90;95.70;;;;;;10294626;28;20055;-64
2022/08/25 10:29:47;;;;;;;3.08;2.28;;;29.10;95.00;;;;;;10275042;28;20113;-64
2022/08/25 10:34:57;;;;;;;4.93;2.17;;;30.20;93.60;;;;;;10292377;28;20054;-64
2022/08/25 10:40:08;;;;;;;3.00;2.28;;;31.30;92.70;;;;;;10289091;28;20410;-64
2022/08/25 10:50:44;;;;;;;2.95;2.20;;;31.80;90.20;;;;;;10291302;28;20046;-62
2022/08/25 10:55:49;;;;;;;3.10;2.78;;;31.70;90.30;;;;;;10294335;28;20453;-62
2022/08/25 11:01:08;;;;;;;4.00;2.30;;;31.80;90.10;;;;;;10291400;28;20105;-63
2022/08/25 11:06:19;;;;;;;4.97;2.30;;;31.80;88.90;;;;;;10291086;28;20561;-63
2022/08/25 11:11:36;;;;;;;5.35;2.63;;;31.40;87.80;;;;;;10273215;28;20476;-63
2022/08/25 11:16:49;;;;;;;3.80;2.28;;;31.40;88.50;;;;;;10290696;28;20054;-63
2022/08/25 11:22:15;;;;;;;5.43;2.15;;;31.20;89.40;;;;;;10290651;28;20193;-62
2022/08/25 11:27:22;;;;;;;2.75;1.73;;;31.00;89.40;;;;;;10298604;28;20541;-63
2022/08/25 11:32:25;;;;;;;;;;;30.50;89.30;;;;;;10297675;28;20049;-62
2022/08/25 11:37:29;;;;;;;2.35;1.83;;;30.40;90.10;;;;;;10291541;28;20001;-62
2022/08/25 11:43:02;;;;;;;3.10;1.87;;;30.10;89.80;;;;;;10295144;28;20047;-63
2022/08/25 11:48:20;;;;;;;3.47;1.88;;;30.10;90.10;;;;;;10295381;28;20042;-62
2022/08/25 11:53:32;;;;;;;2.80;1.45;;;30.20;89.70;;;;;;10293730;28;20038;-62
2022/08/25 11:58:42;;;;;;;3.38;1.88;;;30.20;89.10;;;;;;10293113;28;20122;-62
2022/08/25 12:03:46;;;;;;;4.55;2.10;;;30.20;88.90;;;;;;10296107;28;20260;-62
2022/08/25 12:09:01;;;;;;;3.10;1.65;;;30.30;88.50;;;;;;10302762;28;20053;-62
2022/08/25 12:14:15;;;;;;;4.72;1.40;;;30.20;88.90;;;;;;10293158;28;20039;-62
2022/08/25 12:19:35;;;;;;;1.63;1.38;;;30.20;87.70;;;;;;10295717;28;20046;-62
2022/08/25 12:24:41;;;;;;;2.78;1.73;;;30.20;85.90;;;;;;10299291;28;20039;-62
2022/08/25 12:30:11;;;;;;;2.08;1.58;;;30.30;85.70;;;;;;10296752;28;20061;-62
2022/08/25 12:35:27;;;;;;;2.67;1.48;;;30.40;85.90;;;;;;10291792;28;20046;-62
2022/08/25 12:40:34;;;;;;;2.97;1.65;;;30.50;85.90;;;;;;10297261;28;20482;-62
2022/08/25 12:45:41;;;;;;;1.48;1.25;;;30.70;84.80;;;;;;10290913;28;20138;-62
2022/08/25 12:50:46;;;;;;;4.03;1.20;;;30.80;83.80;;;;;;10296188;28;20054;-62
2022/08/25 12:55:55;;;;;;;2.88;1.58;;;30.80;82.70;;;;;;10293088;28;20059;-62
2022/08/25 13:01:11;;;;;;;1.73;1.40;;;31.40;84.30;;;;;;10293142;28;20109;-62
2022/08/25 13:06:39;;;;;;;2.20;1.33;;;31.80;83.80;;;;;;10290258;28;20121;-63
2022/08/25 13:11:50;;;;;;;1.67;1.17;;;31.60;81.30;;;;;;10291123;28;20057;-62
2022/08/25 13:16:58;;;;;;;2.90;1.40;;;31.40;82.40;;;;;;10291528;28;20082;-62
2022/08/25 13:22:08;;;;;;;2.45;1.27;;;31.10;83.60;;;;;;10289429;28;20482;-62
2022/08/25 13:27:36;;;;;;;5.22;1.63;;;31.30;84.20;;;;;;10291205;28;20046;-62
2022/08/25 13:32:37;;;;;;;2.42;1.65;;;31.20;82.80;;;;;;10290528;28;20146;-62
2022/08/25 13:37:40;;;;;;;4.13;1.85;;;31.20;82.50;;;;;;10294171;28;20047;-62
2022/08/25 13:42:46;;;;;;;1.70;1.30;;;31.40;82.10;;;;;;10299671;28;20058;-63
2022/08/25 13:47:56;;;;;;;5.65;1.70;;;31.20;81.30;;;;;;10291045;28;20047;-63
2022/08/25 13:53:28;;;;;;;1.75;1.27;;;31.10;81.70;;;;;;10287320;28;20050;-63
2022/08/25 13:58:33;;;;;;;2.20;1.40;;;31.30;79.90;;;;;;10278485;28;20061;-63
2022/08/25 14:03:47;;;;;;;2.85;1.52;;;31.50;80.50;;;;;;10293342;28;20051;-63
2022/08/25 14:08:58;;;;;;;2.28;1.17;;;31.20;78.20;;;;;;10292869;28;20113;-63
2022/08/25 14:14:02;;;;;;;1.98;1.23;;;31.50;79.50;;;;;;10291561;28;20055;-63
2022/08/25 14:19:14;;;;;;;2.42;1.27;;;31.60;76.30;;;;;;10295210;28;20066;-63
2022/08/25 14:24:22;;;;;;;1.77;1.10;;;32.30;75.50;;;;;;10291018;28;20485;-63
2022/08/25 14:29:24;;;;;;;4.18;1.20;;;33.20;74.10;;;;;;10294875;28;20046;-63
2022/08/25 14:34:35;;;;;;;1.65;1.05;;;33.70;73.20;;;;;;10296802;28;20046;-63
2022/08/25 14:39:36;;;;;;;1.67;1.10;;;34.40;71.00;;;;;;10290548;28;20058;-63
2022/08/25 14:44:38;;;;;;;3.78;1.00;;;34.30;69.50;;;;;;10295231;28;20120;-64
2022/08/25 14:49:44;;;;;;;3.13;0.90;;;35.10;69.30;;;;;;10294348;28;20062;-63
2022/08/25 14:54:46;;;;;;;4.00;1.15;;;35.60;68.90;;;;;;10291620;28;20038;-63
2022/08/25 14:59:48;;;;;;;4.90;1.30;;;35.90;67.90;;;;;;10301547;28;20050;-63
2022/08/25 15:04:54;;;;;;;1.27;0.95;;;36.20;66.90;;;;;;10298183;28;20122;-63
2022/08/25 15:09:56;;;;;;;2.10;0.90;;;36.30;67.00;;;;;;10295345;28;20698;-63
2022/08/25 15:14:58;;;;;;;1.65;1.23;;;35.90;66.30;;;;;;10295295;28;20050;-63
2022/08/25 15:20:00;;;;;;;2.33;1.10;;;35.80;66.00;;;;;;10299253;28;20102;-63
2022/08/25 15:25:06;;;;;;;1.75;0.95;;;35.70;66.20;;;;;;10295415;28;20054;-63
2022/08/25 15:30:09;;;;;;;1.95;1.10;;;35.30;66.50;;;;;;10301111;28;20049;-63
2022/08/25 15:35:13;;;;;;;4.22;1.08;;;35.30;66.40;;;;;;10294289;28;20478;-63
2022/08/25 15:40:17;;;;;;;2.85;1.67;;;34.80;66.90;;;;;;10296312;28;20042;-63
2022/08/25 15:45:18;;;;;;;4.60;1.10;;;34.70;67.30;;;;;;10283579;28;20046;-63
2022/08/25 15:50:22;;;;;;;3.30;1.00;;;34.40;67.10;;;;;;10282330;28;20086;-63
2022/08/25 15:55:27;;;;;;;2.70;1.05;;;34.20;67.20;;;;;;10282576;28;20053;-63
2022/08/25 16:00:29;;;;;;;6.30;1.40;;;34.10;68.40;;;;;;10297505;28;20057;-63
2022/08/25 16:05:38;;;;;;;1.70;1.17;;;33.60;68.80;;;;;;10301061;28;20062;-62
2022/08/25 16:10:48;;;;;;;1.38;1.02;;;33.60;69.10;;;;;;10294508;28;20052;-63
2022/08/25 16:15:50;;;;;;;2.60;1.00;;;33.60;68.40;;;;;;10297048;28;20050;-62
2022/08/25 16:20:54;;;;;;;;;;;33.50;69.10;;;;;;10296575;28;20055;-62
2022/08/25 16:25:56;;;;;;;1.65;1.23;;;33.40;68.30;;;;;;10289817;28;19937;-61
2022/08/25 16:30:59;;;;;;;1.75;0.90;;;33.40;67.90;;;;;;10292668;28;20117;-61
2022/08/25 16:36:14;;;;;;;6.32;0.82;;;33.00;68.10;;;;;;10295345;28;20075;-62
2022/08/25 16:41:21;;;;;;;5.10;0.73;;;32.80;68.50;;;;;;10297522;28;20536;-62
2022/08/25 16:46:22;;;;;;;4.93;1.05;;;32.80;68.30;;;;;;10301246;28;20405;-61
2022/08/25 16:51:24;;;;;;;2.63;1.25;;;32.60;68.50;;;;;;10290923;28;20438;-61
2022/08/25 16:56:34;;;;;;;1.25;1.00;;;32.60;68.00;;;;;;10296154;28;20051;-61
2022/08/25 17:01:39;;;;;;;3.47;1.30;;;32.60;68.70;;;;;;10291394;28;20057;-61
2022/08/25 17:06:42;;;;;;;4.40;1.00;;;32.40;68.50;;;;;;10298890;28;20062;-62
2022/08/25 17:11:55;;;;;;;1.33;0.80;;;32.50;68.20;;;;;;10291980;28;20121;-62
2022/08/25 17:16:57;;;;;;;1.60;0.85;;;32.40;68.10;;;;;;10298464;28;20046;-62
2022/08/25 17:21:59;;;;;;;1.92;1.00;;;32.40;68.70;;;;;;10302923;28;20066;-63
2022/08/25 17:27:00;;;;;;;1.58;0.85;;;32.40;67.70;;;;;;10295741;28;20058;-63
2022/08/25 17:32:03;;;;;;;1.20;0.70;;;32.20;67.60;;;;;;10298155;28;20436;-62
2022/08/25 17:37:05;;;;;;;3.38;1.20;;;31.90;68.00;;;;;;10294914;28;20046;-62
2022/08/25 17:42:07;;;;;;;1.25;0.90;;;31.60;68.40;;;;;;10289616;28;20996;-62
2022/08/25 17:47:09;;;;;;;3.22;1.38;;;31.30;69.00;;;;;;10296760;28;20058;-62
2022/08/25 17:52:11;;;;;;;2.30;1.10;;;31.00;69.40;;;;;;10293474;28;20105;-62
2022/08/25 17:57:14;;;;;;;3.53;0.90;;;30.70;70.30;;;;;;10292130;28;20046;-63
2022/08/25 18:02:16;;;;;;;4.95;1.00;;;30.40;72.10;;;;;;10292424;28;20167;-63
2022/08/25 18:07:18;;;;;;;1.48;0.80;;;30.10;72.20;;;;;;10284159;28;20046;-63
2022/08/25 18:12:20;;;;;;;3.13;1.08;;;29.80;73.70;;;;;;10290268;28;20053;-62
2022/08/25 18:17:27;;;;;;;9.10;1.13;;;29.50;75.30;;;;;;10291657;28;20050;-62
2022/08/25 18:22:31;;;;;;;3.40;1.13;;;29.20;75.10;;;;;;10290318;28;20038;-62
2022/08/25 18:27:34;;;;;;;11.95;1.20;;;28.90;76.10;;;;;;10283891;28;20055;-64
2022/08/25 18:32:36;;;;;;;3.25;1.25;;;28.60;76.00;;;;;;10304772;28;20042;-63
2022/08/25 18:43:04;;;;;;;5.18;1.10;;;28.10;77.80;;;;;;10298404;28;20412;-63
2022/08/25 18:48:06;;;;;;;2.65;1.17;;;27.80;78.90;;;;;;10296655;28;20437;-63
2022/08/25 18:53:09;;;;;;;2.72;1.00;;;27.60;80.20;;;;;;10293758;28;20466;-63
2022/08/25 18:58:13;;;;;;;2.50;0.95;;;27.40;81.00;;;;;;10298590;28;20126;-62
2022/08/25 19:03:16;;;;;;;4.25;1.33;;;27.20;82.00;;;;;;10299641;28;20050;-61
2022/08/25 19:08:18;;;;;;;2.13;0.85;;;27.00;82.30;;;;;;10298485;28;20050;-61
2022/08/25 19:13:22;;;;;;;4.78;1.35;;;26.70;81.40;;;;;;10295684;28;20482;-60
2022/08/25 19:18:24;;;;;;;5.00;1.25;;;26.50;81.90;;;;;;10295235;28;20046;-61
2022/08/25 19:23:31;;;;;;;4.88;1.15;;;26.30;82.60;;;;;;10295173;28;20066;-61
2022/08/25 19:28:35;;;;;;;3.88;1.00;;;26.20;83.10;;;;;;10296021;28;20054;-61
2022/08/25 19:33:37;;;;;;;1.50;0.80;;;26.00;84.10;;;;;;10293470;28;20058;-61
2022/08/25 19:38:46;;;;;;;4.25;1.42;;;25.80;85.10;;;;;;10296444;28;20042;-61
2022/08/25 19:43:50;;;;;;;4.68;1.35;;;25.70;85.80;;;;;;10293416;28;20046;-60
2022/08/25 19:48:57;;;;;;;7.65;1.10;;;25.50;86.50;;;;;;10296685;28;20070;-62
2022/08/25 19:54:02;;;;;;;6.90;1.20;;;25.40;87.20;;;;;;10296723;28;20046;-61
2022/08/25 19:59:03;;;;;;;3.90;1.63;;;25.20;88.10;;;;;;10296800;28;20050;-60
2022/08/25 20:04:05;;;;;;;2.97;1.70;;;25.00;88.50;;;;;;10296401;28;20061;-61
2022/08/25 20:09:08;;;;;;;5.28;1.63;;;25.00;89.80;;;;;;10292931;28;20476;-61
2022/08/25 20:14:32;;;;;;;3.05;1.48;;;24.80;90.10;;;;;;10294603;28;20061;-61
2022/08/25 20:19:35;;;;;;;5.70;1.30;;;24.60;90.20;;;;;;10298603;28;20046;-60
2022/08/25 20:24:51;;;;;;;3.10;1.30;;;24.50;90.60;;;;;;10299514;28;20489;-61
2022/08/25 20:29:59;;;;;;;3.88;1.52;;;24.40;91.00;;;;;;10298195;28;20462;-60
2022/08/25 20:35:06;;;;;;;6.63;1.10;;;24.20;91.20;;;;;;10302885;28;20054;-63
2022/08/25 20:40:15;;;;;;;5.22;1.40;;;24.10;91.60;;;;;;10288328;28;20050;-63
2022/08/25 20:45:20;;;;;;;4.88;1.38;;;24.00;91.80;;;;;;10292880;28;20096;-63
2022/08/25 20:50:23;;;;;;;5.50;1.60;;;23.90;92.40;;;;;;10289955;28;20497;-63
2022/08/25 20:55:26;;;;;;;3.28;1.20;;;23.80;93.00;;;;;;10290553;28;20042;-62
2022/08/25 21:00:29;;;;;;;2.35;1.05;;;23.70;92.90;;;;;;10294806;28;20528;-63
2022/08/25 21:05:30;;;;;;;3.47;0.90;;;23.50;93.20;;;;;;10294903;28;20125;-63
2022/08/25 21:10:32;;;;;;;3.10;1.38;;;23.40;93.20;;;;;;10292807;28;20477;-63
2022/08/25 21:15:35;;;;;;;1.98;0.95;;;23.40;93.80;;;;;;10296285;28;20046;-63
2022/08/25 21:20:37;;;;;;;2.72;1.45;;;23.30;93.60;;;;;;10294833;28;20519;-65
2022/08/25 21:25:40;;;;;;;3.25;1.02;;;23.20;94.00;;;;;;10297575;28;20054;-63
2022/08/25 21:30:42;;;;;;;2.83;1.45;;;23.10;94.20;;;;;;10292595;28;20058;-64
2022/08/25 21:35:47;;;;;;;2.43;1.57;;;23.10;94.40;;;;;;10289267;28;20043;-63
2022/08/25 21:40:49;;;;;;;3.53;1.10;;;23.00;94.60;;;;;;10297637;28;20061;-63
2022/08/25 21:45:52;;;;;;;3.95;1.00;;;23.00;94.80;;;;;;10292936;28;20128;-63
2022/08/25 21:51:18;;;;;;;2.28;1.00;;;23.00;94.90;;;;;;10290970;28;20050;-63
2022/08/25 21:56:22;;;;;;;2.80;1.17;;;22.90;95.20;;;;;;10288729;28;20383;-63
2022/08/25 22:01:27;;;;;;;1.20;0.90;;;22.80;95.20;;;;;;10291739;28;20057;-63
2022/08/25 22:06:29;;;;;;;5.35;1.20;;;22.70;95.60;;;;;;10289351;28;20046;-62
2022/08/25 22:11:31;;;;;;;2.50;0.98;;;22.70;96.00;;;;;;10292570;28;20105;-64
2022/08/25 22:16:38;;;;;;;2.25;1.13;;;22.60;96.50;;;;;;10272638;28;20046;-64
2022/08/25 22:21:42;;;;;;;5.88;1.08;;;22.50;96.40;;;;;;10292320;28;20046;-63
2022/08/25 22:26:45;;;;;;;2.22;1.25;;;22.40;96.70;;;;;;10294275;28;20054;-63
2022/08/25 22:31:49;;;;;;;2.35;1.15;;;22.40;97.10;;;;;;10289535;28;20054;-63
2022/08/25 22:36:53;;;;;;;2.67;1.23;;;22.20;97.20;;;;;;10292501;28;20143;-62
2022/08/25 22:42:01;;;;;;;2.53;0.95;;;22.10;97.50;;;;;;10293843;28;20996;-62
2022/08/25 22:47:03;;;;;;;1.83;1.10;;;22.00;97.40;;;;;;10285266;28;20065;-63
2022/08/25 22:52:05;;;;;;;3.50;1.00;;;22.10;97.40;;;;;;10286009;28;20386;-63
2022/08/25 22:57:10;;;;;;;7.22;1.63;;;22.10;97.80;;;;;;10296353;28;20051;-63
2022/08/25 23:02:12;;;;;;;4.22;1.52;;;22.10;98.00;;;;;;10288025;28;20046;-63
2022/08/25 23:07:14;;;;;;;4.07;1.08;;;22.00;97.70;;;;;;10288713;28;20046;-63
2022/08/25 23:12:16;;;;;;;1.88;0.80;;;21.90;97.30;;;;;;10291513;28;20053;-63
2022/08/25 23:17:19;;;;;;;3.58;0.98;;;21.90;97.90;;;;;;10293021;28;20437;-63
2022/08/25 23:22:21;;;;;;;6.68;1.55;;;21.70;98.40;;;;;;10297271;28;20105;-63
2022/08/25 23:27:24;;;;;;;2.65;0.95;;;21.70;98.70;;;;;;10284075;28;20563;-62
2022/08/25 23:32:25;;;;;;;7.25;1.02;;;21.60;99.30;;;;;;10294772;28;20050;-63
2022/08/25 23:37:28;;;;;;;8.15;1.50;;;21.60;99.50;;;;;;10297337;28;20050;-62
2022/08/25 23:42:30;;;;;;;3.28;1.40;;;21.50;99.90;;;;;;10297588;28;20046;-62
2022/08/25 23:47:32;;;;;;;3.70;1.35;;;21.40;99.90;;;;;;10292577;28;20059;-63
2022/08/25 23:52:34;;;;;;;1.88;1.00;;;21.40;99.90;;;;;;10296356;28;20870;-62
2022/08/25 23:57:36;;;;;;;3.20;1.08;;;21.30;99.90;;;;;;10289448;28;20050;-62
